Time;durP1;ratioP1;P1;durP2;ratioP2;P2;SDS_P1;SDS_P2;PMS_P1;PMS_P2;Temp;Humidity;BMP_temperature;BMP_pressure;BME280_temperature;BME280_humidity;BME280_pressure;Samples;Min_cycle;Max_cycle;Signal;HPM_P1;HPM_P2
2021/12/29 00:00:03;;;;;;;;;;;8.70;99.90;;;;;;5058071;28;19916;-87
2021/12/29 00:02:28;;;;;;;;;;;8.70;99.90;;;;;;5040442;28;19924;-84
2021/12/29 00:04:54;;;;;;;;;;;8.70;99.90;;;;;;5057533;28;19921;-84
2021/12/29 00:07:20;;;;;;;;;;;8.70;99.90;;;;;;5039853;28;19917;-83
2021/12/29 00:09:46;;;;;;;;;;;8.70;99.90;;;;;;5039771;28;20041;-86
2021/12/29 00:12:14;;;;;;;;;;;8.70;99.90;;;;;;5040148;28;19955;-85
2021/12/29 00:14:40;;;;;;;;;;;8.70;99.90;;;;;;5040080;28;19913;-89
2021/12/29 00:17:06;;;;;;;;;;;8.70;99.90;;;;;;5057351;28;20311;-79
2021/12/29 00:19:31;;;;;;;;;;;8.70;99.90;;;;;;5057383;28;19913;-85
2021/12/29 00:21:57;;;;;;;;;;;8.70;99.90;;;;;;5039505;28;19917;-83
2021/12/29 00:24:23;;;;;;;;;;;8.70;99.90;;;;;;5039655;28;19987;-80
2021/12/29 00:26:48;;;;;;;;;;;8.70;99.90;;;;;;5057096;28;19944;-82
2021/12/29 00:29:15;;;;;;;;;;;8.60;99.90;;;;;;5057124;28;19959;-84
2021/12/29 00:31:40;;;;;;;;;;;8.60;99.90;;;;;;5057318;28;19913;-80
2021/12/29 00:34:06;;;;;;;;;;;8.60;99.90;;;;;;5039232;28;19919;-83
2021/12/29 00:36:32;;;;;;;;;;;8.60;99.90;;;;;;5056962;28;19909;-83
2021/12/29 00:38:57;;;;;;;;;;;8.60;99.90;;;;;;5055659;28;20007;-80
2021/12/29 00:41:23;;;;;;;;;;;8.60;99.90;;;;;;5056641;28;19974;-82
2021/12/29 00:43:48;;;;;;;;;;;8.60;99.90;;;;;;5056963;28;19935;-88
2021/12/29 00:46:18;;;;;;;;;;;8.70;99.90;;;;;;5056026;28;19913;-80
2021/12/29 00:48:45;;;;;;;;;;;8.70;99.90;;;;;;5039169;28;19909;-79
2021/12/29 00:51:11;;;;;;;;;;;8.60;99.90;;;;;;5039259;28;20215;-88
2021/12/29 00:53:37;;;;;;;;;;;8.60;99.90;;;;;;5039268;28;19932;-84
2021/12/29 00:56:03;;;;;;;;;;;8.60;99.90;;;;;;5039112;28;20296;-84
2021/12/29 00:58:29;;;;;;;;;;;8.60;99.90;;;;;;5038988;28;19908;-84
2021/12/29 01:00:55;;;;;;;;;;;8.60;99.90;;;;;;5031173;28;20375;-82
2021/12/29 01:03:21;;;;;;;;;;;8.60;99.90;;;;;;5038843;28;19951;-85
2021/12/29 01:05:46;;;;;;;;;;;8.60;99.90;;;;;;5056295;28;19913;-81
2021/12/29 01:08:12;;;;;;;;;;;8.60;99.90;;;;;;5056222;28;19994;-84
2021/12/29 01:10:39;;;;;;;;;;;8.60;99.90;;;;;;5055301;28;19909;-85
2021/12/29 01:13:08;;;;;;;;;;;8.60;99.90;;;;;;5038456;28;19909;-78
2021/12/29 01:15:47;;;;;;;;;;;8.60;99.90;;;;;;5038478;28;19916;-82
2021/12/29 01:18:13;;;;;;;;;;;8.60;99.90;;;;;;5056506;28;20273;-84
2021/12/29 01:20:39;;;;;;;;;;;8.60;99.90;;;;;;5056273;28;19908;-83
2021/12/29 01:23:04;;;;;;;;;;;8.60;99.90;;;;;;5056074;28;19921;-83
2021/12/29 01:25:30;;;;;;;;;;;8.60;99.90;;;;;;5038564;28;20530;-78
2021/12/29 01:27:56;;;;;;;;;;;8.60;99.90;;;;;;5056287;28;20343;-85
2021/12/29 01:30:22;;;;;;;;;;;8.60;99.90;;;;;;5038664;28;19977;-86
2021/12/29 01:32:47;;;;;;;;;;;8.60;99.90;;;;;;5038137;28;19908;-85
2021/12/29 01:35:13;;;;;;;;;;;8.60;99.90;;;;;;5042081;28;20008;-86
2021/12/29 01:37:39;;;;;;;;;;;8.60;99.90;;;;;;5036287;28;19913;-85
2021/12/29 01:40:06;;;;;;;;;;;8.60;99.90;;;;;;5036186;28;19916;-80
2021/12/29 01:42:32;;;;;;;;;;;8.60;99.90;;;;;;5018361;28;20312;-91
2021/12/29 01:44:57;;;;;;;;;;;8.60;99.90;;;;;;5036439;28;19977;-87
2021/12/29 01:47:24;;;;;;;;;;;8.60;99.90;;;;;;5051962;28;19945;-83
2021/12/29 01:49:49;;;;;;;;;;;8.60;99.90;;;;;;5036400;28;19913;-84
2021/12/29 01:52:21;;;;;;;;;;;8.60;99.90;;;;;;5036049;28;20003;-82
2021/12/29 01:54:46;;;;;;;;;;;8.60;99.90;;;;;;5018858;28;20004;-90
2021/12/29 01:57:12;;;;;;;;;;;8.60;99.90;;;;;;5051531;28;20257;-83
2021/12/29 01:59:37;;;;;;;;;;;8.60;99.90;;;;;;5034724;28;19913;-83
2021/12/29 02:02:04;;;;;;;;;;;8.60;99.90;;;;;;5018639;28;19920;-84
2021/12/29 02:04:30;;;;;;;;;;;8.60;99.90;;;;;;5018469;28;19910;-86
2021/12/29 02:06:55;;;;;;;;;;;8.60;99.90;;;;;;5035879;28;19916;-84
2021/12/29 02:09:21;;;;;;;;;;;8.60;99.90;;;;;;5035944;28;20011;-86
2021/12/29 02:11:47;;;;;;;;;;;8.60;99.90;;;;;;5035970;28;19910;-85
2021/12/29 02:14:12;;;;;;;;;;;8.60;99.90;;;;;;5036072;28;20007;-84
2021/12/29 02:16:38;;;;;;;;;;;8.60;99.90;;;;;;5036133;28;20067;-87
2021/12/29 02:19:05;;;;;;;;;;;8.60;99.90;;;;;;5036201;28;19913;-85
2021/12/29 02:21:32;;;;;;;;;;;8.60;99.90;;;;;;5018564;28;19916;-85
2021/12/29 02:26:30;;;;;;;;;;;8.60;99.90;;;;;;5036032;28;19917;-86
2021/12/29 02:28:56;;;;;;;;;;;8.60;99.90;;;;;;5036018;28;19909;-84
2021/12/29 02:31:23;;;;;;;;;;;8.60;99.90;;;;;;5018454;28;19909;-84
2021/12/29 02:33:48;;;;;;;;;;;8.60;99.90;;;;;;5035935;28;19909;-84
2021/12/29 02:36:16;;;;;;;;;;;8.60;99.90;;;;;;5035935;28;20296;-80
2021/12/29 02:38:47;;;;;;;;;;;8.60;99.90;;;;;;5018292;28;19909;-84
2021/12/29 02:41:12;;;;;;;;;;;8.60;99.90;;;;;;5018181;28;20004;-86
2021/12/29 02:43:40;;;;;;;;;;;8.70;99.90;;;;;;5036080;28;20361;-84
2021/12/29 02:46:11;;;;;;;;;;;8.70;99.90;;;;;;5055163;28;19916;-84
2021/12/29 02:48:40;;;;;;;;;;;8.60;99.90;;;;;;5039201;28;19935;-85
2021/12/29 02:51:08;;;;;;;;;;;8.60;99.90;;;;;;5021757;28;20315;-82
2021/12/29 02:53:34;;;;;;;;;;;8.50;99.90;;;;;;5054702;28;19920;-86
2021/12/29 02:55:59;;;;;;;;;;;8.50;99.90;;;;;;5021663;28;19909;-83
2021/12/29 02:58:25;;;;;;;;;;;8.60;99.90;;;;;;5039387;28;19909;-83
2021/12/29 03:00:52;;;;;;;;;;;8.60;99.90;;;;;;5021688;28;20030;-86
2021/12/29 03:03:18;;;;;;;;;;;8.60;99.90;;;;;;5053761;28;20318;-85
2021/12/29 03:05:44;;;;;;;;;;;8.60;99.90;;;;;;5059088;28;20058;-84
2021/12/29 03:08:11;;;;;;;;;;;8.60;99.90;;;;;;5059053;28;19941;-84
2021/12/29 03:10:37;;;;;;;;;;;8.60;99.90;;;;;;5058810;28;19909;-85
2021/12/29 03:13:03;;;;;;;;;;;8.60;99.90;;;;;;5041171;28;19915;-86
2021/12/29 03:15:29;;;;;;;;;;;8.60;99.90;;;;;;5058544;28;19920;-83
2021/12/29 03:17:54;;;;;;;;;;;8.70;99.90;;;;;;5058926;28;19913;-81
2021/12/29 03:20:20;;;;;;;;;;;8.70;99.90;;;;;;5058167;28;19931;-85
2021/12/29 03:22:46;;;;;;;;;;;8.70;99.90;;;;;;5058335;28;20047;-84
2021/12/29 03:25:11;;;;;;;;;;;8.70;99.90;;;;;;5058219;28;19913;-83
2021/12/29 03:27:37;;;;;;;;;;;8.70;99.90;;;;;;5058466;28;19909;-83
2021/12/29 03:30:03;;;;;;;;;;;8.70;99.90;;;;;;5040410;28;19909;-83
2021/12/29 03:32:40;;;;;;;;;;;8.70;99.90;;;;;;5058275;28;19987;-84
2021/12/29 03:35:07;;;;;;;;;;;8.70;99.90;;;;;;5040439;28;19912;-83
2021/12/29 03:37:32;;;;;;;;;;;8.70;99.90;;;;;;5058006;28;19993;-82
2021/12/29 03:39:58;;;;;;;;;;;8.70;99.90;;;;;;5040302;28;19962;-83
2021/12/29 03:42:23;;;;;;;;;;;8.80;99.90;;;;;;5057623;28;19925;-85
2021/12/29 03:44:49;;;;;;;;;;;8.80;99.90;;;;;;5040372;28;19920;-83
2021/12/29 03:47:14;;;;;;;;;;;8.70;99.90;;;;;;5058171;28;20357;-83
2021/12/29 03:49:40;;;;;;;;;;;8.70;99.90;;;;;;5057841;28;19912;-85
2021/12/29 03:52:06;;;;;;;;;;;8.70;99.90;;;;;;5040193;28;20605;-83
2021/12/29 03:54:31;;;;;;;;;;;8.70;99.90;;;;;;5057769;28;19916;-83
2021/12/29 03:57:00;;;;;;;;;;;8.70;99.90;;;;;;5057343;28;19908;-84
2021/12/29 03:59:26;;;;;;;;;;;8.70;99.90;;;;;;5040245;28;20303;-83
2021/12/29 04:01:52;;;;;;;;;;;8.70;99.90;;;;;;5040151;28;20007;-84
2021/12/29 04:04:18;;;;;;;;;;;8.70;99.90;;;;;;5057570;28;19909;-85
2021/12/29 04:06:43;;;;;;;;;;;8.70;99.90;;;;;;5040097;28;20243;-84
2021/12/29 04:09:09;;;;;;;;;;;8.70;99.90;;;;;;5023446;28;19967;-86
2021/12/29 04:11:35;;;;;;;;;;;8.70;99.90;;;;;;5039870;28;20490;-79
2021/12/29 04:14:00;;;;;;;;;;;8.70;99.90;;;;;;5039813;28;20267;-79
2021/12/29 04:16:26;;;;;;;;;;;8.70;99.90;;;;;;5039727;28;19999;-80
2021/12/29 04:19:14;;;;;;;;;;;8.70;99.90;;;;;;5057137;28;19951;-79
2021/12/29 04:21:41;;;;;;;;;;;8.70;99.90;;;;;;5057005;28;19909;-84
2021/12/29 04:24:06;;;;;;;;;;;8.80;99.90;;;;;;5039195;28;19912;-78
2021/12/29 04:26:36;;;;;;;;;;;8.80;99.90;;;;;;5038813;28;20243;-77
2021/12/29 04:29:01;;;;;;;;;;;8.70;99.90;;;;;;5056619;28;19959;-77
2021/12/29 04:31:27;;;;;;;;;;;8.70;99.90;;;;;;5056573;28;20262;-77
2021/12/29 04:33:53;;;;;;;;;;;8.70;99.90;;;;;;5053616;28;19909;-79
2021/12/29 04:36:24;;;;;;;;;;;8.70;99.90;;;;;;5019255;28;19909;-77
2021/12/29 04:38:53;;;;;;;;;;;8.70;99.90;;;;;;5036729;28;19913;-77
2021/12/29 04:41:20;;;;;;;;;;;8.70;99.90;;;;;;5018917;28;19917;-77
2021/12/29 04:43:46;;;;;;;;;;;8.70;99.90;;;;;;5018951;28;20373;-76
2021/12/29 04:46:16;;;;;;;;;;;8.70;99.90;;;;;;5036465;28;19913;-77
2021/12/29 04:48:49;;;;;;;;;;;8.70;99.90;;;;;;5036497;28;19909;-76
2021/12/29 04:51:22;;;;;;;;;;;8.70;99.90;;;;;;5018666;28;20008;-77
2021/12/29 04:53:48;;;;;;;;;;;8.70;99.90;;;;;;5036284;28;19916;-76
2021/12/29 04:56:15;;;;;;;;;;;8.70;99.90;;;;;;5051536;28;20297;-76
2021/12/29 04:58:40;;;;;;;;;;;8.70;99.90;;;;;;5035989;28;20292;-77
2021/12/29 05:01:06;;;;;;;;;;;8.70;99.90;;;;;;5036099;28;19913;-76
2021/12/29 05:03:32;;;;;;;;;;;8.70;99.90;;;;;;5018282;28;19957;-77
2021/12/29 05:08:24;;;;;;;;;;;8.80;99.90;;;;;;5035978;28;19909;-76
2021/12/29 05:08:43;;;;;;;;;;;8.80;99.90;;;;;;5034955;28;20414;-76
2021/12/29 05:11:11;;;;;;;;;;;8.80;99.90;;;;;;5035835;28;19909;-87
2021/12/29 05:13:38;;;;;;;;;;;8.80;99.90;;;;;;5051231;28;20602;-77
2021/12/29 05:16:03;;;;;;;;;;;8.80;99.90;;;;;;5018081;28;19916;-78
2021/12/29 05:18:30;;;;;;;;;;;8.80;99.90;;;;;;5035786;28;20301;-79
2021/12/29 05:20:56;;;;;;;;;;;8.80;99.90;;;;;;5035801;28;19917;-76
2021/12/29 05:23:22;;;;;;;;;;;8.70;99.90;;;;;;5051242;28;19999;-79
2021/12/29 05:25:49;;;;;;;;;;;8.80;99.90;;;;;;5018464;28;19920;-88
2021/12/29 05:28:17;;;;;;;;;;;8.80;99.90;;;;;;5018539;28;19963;-81
2021/12/29 05:30:43;;;;;;;;;;;8.80;99.90;;;;;;5034612;28;19966;-80
2021/12/29 05:33:09;;;;;;;;;;;8.80;99.90;;;;;;5018342;28;19917;-87
2021/12/29 05:35:35;;;;;;;;;;;8.80;99.90;;;;;;5036271;28;20281;-80
2021/12/29 05:38:01;;;;;;;;;;;8.80;99.90;;;;;;5018627;28;19913;-85
2021/12/29 05:40:27;;;;;;;;;;;8.80;99.90;;;;;;5018956;28;19909;-79
2021/12/29 05:42:54;;;;;;;;;;;8.80;99.90;;;;;;5035704;28;20039;-85
2021/12/29 05:45:20;;;;;;;;;;;8.80;99.90;;;;;;5036184;28;20315;-84
2021/12/29 05:47:46;;;;;;;;;;;8.80;99.90;;;;;;5036231;28;20000;-85
2021/12/29 05:50:13;;;;;;;;;;;8.80;99.90;;;;;;5018776;28;19915;-85
2021/12/29 05:52:38;;;;;;;;;;;8.70;99.90;;;;;;5036243;28;19910;-80
2021/12/29 05:55:05;;;;;;;;;;;8.60;99.90;;;;;;5035946;28;19959;-78
2021/12/29 05:57:30;;;;;;;;;;;8.60;99.90;;;;;;5018115;28;19949;-81
2021/12/29 05:59:56;;;;;;;;;;;8.70;99.90;;;;;;5035884;28;19948;-85
2021/12/29 06:02:22;;;;;;;;;;;8.70;99.90;;;;;;5035684;28;20316;-83
2021/12/29 06:04:47;;;;;;;;;;;8.60;99.90;;;;;;5035880;28;19909;-80
2021/12/29 06:07:13;;;;;;;;;;;8.60;99.90;;;;;;5035710;28;20271;-84
2021/12/29 06:09:39;;;;;;;;;;;8.60;99.90;;;;;;5035968;28;20007;-79
2021/12/29 06:12:05;;;;;;;;;;;8.60;99.90;;;;;;5035767;28;19909;-79
2021/12/29 06:14:31;;;;;;;;;;;8.60;99.90;;;;;;5036418;28;19909;-87
2021/12/29 06:16:56;;;;;;;;;;;8.70;99.90;;;;;;5036118;28;19916;-85
2021/12/29 06:19:22;;;;;;;;;;;8.60;99.90;;;;;;5020229;28;20296;-86
2021/12/29 06:21:47;;;;;;;;;;;8.60;99.90;;;;;;5040143;28;19909;-85
2021/12/29 06:24:13;;;;;;;;;;;8.60;99.90;;;;;;5040134;28;20054;-86
2021/12/29 06:26:39;;;;;;;;;;;8.60;99.90;;;;;;5040073;28;19916;-86
2021/12/29 06:29:04;;;;;;;;;;;8.60;99.90;;;;;;5040162;28;19913;-81
2021/12/29 06:31:32;;;;;;;;;;;8.50;99.90;;;;;;5040318;28;19956;-88
2021/12/29 06:33:59;;;;;;;;;;;8.50;99.90;;;;;;5022565;28;20264;-86
2021/12/29 06:36:24;;;;;;;;;;;8.50;99.90;;;;;;5038770;28;20216;-82
2021/12/29 06:38:50;;;;;;;;;;;8.50;99.90;;;;;;5058976;28;19912;-86
2021/12/29 06:41:16;;;;;;;;;;;8.50;99.90;;;;;;5042008;28;19963;-86
2021/12/29 06:43:41;;;;;;;;;;;8.50;99.90;;;;;;5059732;28;19920;-85
2021/12/29 06:46:07;;;;;;;;;;;8.50;99.90;;;;;;5041928;28;19909;-85
2021/12/29 06:48:32;;;;;;;;;;;8.50;99.90;;;;;;5059580;28;19923;-84
2021/12/29 06:50:58;;;;;;;;;;;8.50;99.90;;;;;;5041989;28;19932;-86
2021/12/29 06:53:25;;;;;;;;;;;8.50;99.90;;;;;;5041951;28;20326;-86
2021/12/29 06:55:51;;;;;;;;;;;8.50;99.90;;;;;;5041750;28;19912;-86
2021/12/29 06:58:16;;;;;;;;;;;8.50;99.90;;;;;;5059792;28;19912;-85
2021/12/29 07:00:42;;;;;;;;;;;8.50;99.90;;;;;;5041998;28;19916;-84
2021/12/29 07:03:07;;;;;;;;;;;8.50;99.90;;;;;;5041621;28;20296;-85
2021/12/29 07:05:33;;;;;;;;;;;8.50;99.90;;;;;;5041713;28;20360;-86
2021/12/29 07:07:59;;;;;;;;;;;8.50;99.90;;;;;;5041777;28;19909;-85
2021/12/29 07:10:24;;;;;;;;;;;8.50;99.90;;;;;;5059374;28;19913;-82
2021/12/29 07:12:50;;;;;;;;;;;8.50;99.90;;;;;;5059410;28;20288;-88
2021/12/29 07:15:16;;;;;;;;;;;8.40;99.90;;;;;;5041671;28;19963;-87
2021/12/29 07:17:41;;;;;;;;;;;8.30;99.90;;;;;;5058882;28;19916;-88
2021/12/29 07:20:07;;;;;;;;;;;8.30;99.90;;;;;;5041661;28;19916;-88
2021/12/29 07:22:33;;;;;;;;;;;8.30;99.90;;;;;;5041407;28;19920;-87
2021/12/29 07:24:59;;;;;;;;;;;8.30;99.90;;;;;;5041598;28;19915;-86
2021/12/29 07:27:24;;;;;;;;;;;8.30;99.90;;;;;;5058852;28;19958;-84
2021/12/29 07:29:50;;;;;;;;;;;8.30;99.90;;;;;;5058825;28;19913;-84
2021/12/29 07:32:15;;;;;;;;;;;8.20;99.90;;;;;;5057817;28;19909;-83
2021/12/29 07:34:41;;;;;;;;;;;8.20;99.90;;;;;;5058668;28;19913;-84
2021/12/29 07:37:06;;;;;;;;;;;8.20;99.90;;;;;;5040881;28;19951;-84
2021/12/29 07:39:32;;;;;;;;;;;8.20;99.90;;;;;;5058540;28;20250;-85
2021/12/29 07:41:58;;;;;;;;;;;8.20;99.90;;;;;;5058235;28;20007;-85
2021/12/29 07:44:25;;;;;;;;;;;8.20;99.90;;;;;;5058765;28;19913;-86
2021/12/29 07:46:54;;;;;;;;;;;8.20;99.90;;;;;;5040659;28;19979;-83
2021/12/29 07:49:20;;;;;;;;;;;8.20;99.90;;;;;;5040847;28;19909;-84
2021/12/29 07:51:46;;;;;;;;;;;8.20;99.90;;;;;;5058268;28;20363;-85
2021/12/29 07:54:13;;;;;;;;;;;8.20;99.90;;;;;;5058198;28;19975;-85
2021/12/29 07:56:40;;;;;;;;;;;8.20;99.90;;;;;;5040238;28;19920;-85
2021/12/29 07:59:06;;;;;;;;;;;8.20;99.90;;;;;;5040193;28;19916;-83
2021/12/29 08:01:32;;;;;;;;;;;8.20;99.90;;;;;;5040448;28;19912;-85
2021/12/29 08:03:57;;;;;;;;;;;8.10;99.90;;;;;;5040130;28;19919;-85
2021/12/29 08:06:23;;;;;;;;;;;8.20;99.90;;;;;;5040369;28;19915;-80
2021/12/29 08:08:49;;;;;;;;;;;8.20;99.90;;;;;;5040233;28;19908;-84
2021/12/29 08:11:16;;;;;;;;;;;8.20;99.90;;;;;;5057986;28;20223;-85
2021/12/29 08:13:42;;;;;;;;;;;8.10;99.90;;;;;;5040213;28;19909;-85
2021/12/29 08:16:07;;;;;;;;;;;8.10;99.90;;;;;;5057928;28;19909;-85
2021/12/29 08:18:33;;;;;;;;;;;8.10;99.90;;;;;;5057439;28;19940;-85
2021/12/29 08:20:59;;;;;;;;;;;8.10;99.90;;;;;;5057613;28;19995;-84
2021/12/29 08:23:25;;;;;;;;;;;8.10;99.90;;;;;;5057503;28;19916;-82
2021/12/29 08:25:50;;;;;;;;;;;8.10;99.90;;;;;;5057513;28;19909;-85
2021/12/29 08:28:17;;;;;;;;;;;8.10;99.90;;;;;;5039694;28;19920;-84
2021/12/29 08:30:43;;;;;;;;;;;8.10;99.90;;;;;;5057647;28;19908;-85
2021/12/29 08:33:09;;;;;;;;;;;8.10;99.90;;;;;;5039847;28;19916;-86
2021/12/29 08:35:34;;;;;;;;;;;8.10;99.90;;;;;;5057332;28;19913;-80
2021/12/29 08:38:00;;;;;;;;;;;8.10;99.90;;;;;;5039775;28;19909;-86
2021/12/29 08:40:26;;;;;;;;;;;8.10;99.90;;;;;;5039892;28;20224;-85
2021/12/29 08:42:52;;;;;;;;;;;8.10;99.90;;;;;;5057150;28;19996;-85
2021/12/29 08:45:18;;;;;;;;;;;8.10;99.90;;;;;;5039558;28;19974;-85
2021/12/29 08:47:45;;;;;;;;;;;8.10;99.90;;;;;;5039723;28;19932;-84
2021/12/29 08:50:13;;;;;;;;;;;8.10;99.90;;;;;;5039485;28;19944;-85
2021/12/29 08:52:39;;;;;;;;;;;8.10;99.90;;;;;;5039335;28;19935;-85
2021/12/29 08:55:07;;;;;;;;;;;8.10;99.90;;;;;;5055724;28;20023;-79
2021/12/29 08:57:33;;;;;;;;;;;8.10;99.90;;;;;;5039308;28;20626;-83
2021/12/29 08:59:59;;;;;;;;;;;8.10;99.90;;;;;;5055767;28;19908;-84
2021/12/29 09:02:25;;;;;;;;;;;8.10;99.90;;;;;;5038966;28;19923;-83
2021/12/29 09:04:51;;;;;;;;;;;8.10;99.90;;;;;;5038981;28;19917;-84
2021/12/29 09:07:16;;;;;;;;;;;8.10;99.90;;;;;;5039387;28;19913;-84
2021/12/29 09:09:42;;;;;;;;;;;8.10;99.90;;;;;;5056762;28;19908;-84
2021/12/29 09:12:08;;;;;;;;;;;8.20;99.90;;;;;;5056685;28;19909;-85
2021/12/29 09:14:33;;;;;;;;;;;8.20;99.90;;;;;;5039006;28;20215;-85
2021/12/29 09:16:59;;;;;;;;;;;8.20;99.90;;;;;;5039097;28;20226;-84
2021/12/29 09:19:25;;;;;;;;;;;8.20;99.90;;;;;;5038660;28;19920;-80
2021/12/29 09:21:53;;;;;;;;;;;8.20;99.90;;;;;;5055084;28;19909;-84
2021/12/29 09:24:20;;;;;;;;;;;8.20;99.90;;;;;;5038671;28;19913;-83
2021/12/29 09:26:46;;;;;;;;;;;8.30;99.90;;;;;;5038597;28;20004;-83
2021/12/29 09:29:12;;;;;;;;;;;8.20;99.90;;;;;;5056385;28;19944;-84
2021/12/29 09:31:37;;;;;;;;;;;8.30;99.90;;;;;;5056359;28;20031;-83
2021/12/29 09:34:03;;;;;;;;;;;8.30;99.90;;;;;;5054750;28;19966;-83
2021/12/29 09:36:28;;;;;;;;;;;8.30;99.90;;;;;;5038498;28;20003;-84
2021/12/29 09:38:54;;;;;;;;;;;8.30;99.90;;;;;;5038636;28;20316;-79
2021/12/29 09:41:20;;;;;;;;;;;8.30;99.90;;;;;;5038248;28;19987;-84
2021/12/29 09:43:46;;;;;;;;;;;8.30;99.90;;;;;;5038158;28;19916;-84
2021/12/29 09:46:12;;;;;;;;;;;8.30;99.90;;;;;;5055993;28;19971;-85
2021/12/29 09:48:38;;;;;;;;;;;8.30;99.90;;;;;;5056101;28;20000;-84
2021/12/29 09:51:04;;;;;;;;;;;8.30;99.90;;;;;;5038533;28;20330;-84
2021/12/29 09:53:30;;;;;;;;;;;8.30;99.90;;;;;;5055453;28;20000;-84
2021/12/29 09:55:56;;;;;;;;;;;8.40;99.90;;;;;;5038422;28;20364;-84
2021/12/29 09:58:21;;;;;;;;;;;8.30;99.90;;;;;;5055991;28;19940;-84
2021/12/29 10:00:51;;;;;;;;;;;8.40;99.90;;;;;;5055965;28;19962;-83
2021/12/29 10:03:18;;;;;;;;;;;8.40;99.90;;;;;;5055985;28;19913;-84
2021/12/29 10:05:45;;;;;;;;;;;8.40;99.90;;;;;;5038194;28;20299;-84
2021/12/29 10:08:12;;;;;;;;;;;8.40;99.90;;;;;;5037944;28;19912;-84
2021/12/29 10:10:39;;;;;;;;;;;8.40;99.90;;;;;;5037778;28;19913;-84
2021/12/29 10:13:06;;;;;;;;;;;8.40;99.90;;;;;;5055397;28;19924;-79
2021/12/29 10:15:42;;;;;;;;;;;8.40;99.90;;;;;;5054995;28;19997;-81
2021/12/29 10:18:10;;;;;;;;;;;8.40;99.90;;;;;;5055396;28;20207;-84
2021/12/29 10:20:46;;;;;;;;;;;8.40;99.90;;;;;;5037442;28;19912;-84
2021/12/29 10:23:16;;;;;;;;;;;8.50;99.90;;;;;;5055071;28;19956;-84
2021/12/29 10:25:41;;;;;;;;;;;8.50;99.90;;;;;;5038376;28;20227;-84
2021/12/29 10:28:17;;;;;;;;;;;8.50;99.90;;;;;;5038306;28;19954;-85
2021/12/29 10:30:42;;;;;;;;;;;8.50;99.90;;;;;;5038373;28;19935;-82
2021/12/29 10:33:09;;;;;;;;;;;8.50;99.90;;;;;;5055786;28;20300;-85
2021/12/29 10:35:35;;;;;;;;;;;8.50;99.90;;;;;;5055591;28;19917;-82
2021/12/29 10:38:12;;;;;;;;;;;8.60;99.90;;;;;;5038125;28;19918;-83
2021/12/29 10:40:38;;;;;;;;;;;8.50;99.90;;;;;;5055632;28;19909;-84
2021/12/29 10:43:04;;;;;;;;;;;8.60;99.90;;;;;;5037761;28;20216;-84
2021/12/29 10:45:31;;;;;;;;;;;8.60;99.90;;;;;;5055642;28;19908;-85
2021/12/29 10:47:56;;;;;;;;;;;8.60;99.90;;;;;;5038174;28;19909;-83
2021/12/29 10:50:22;;;;;;;;;;;8.60;99.90;;;;;;5055466;28;19916;-84
2021/12/29 10:52:51;;;;;;;;;;;8.60;99.90;;;;;;5055862;28;19915;-84
2021/12/29 10:55:19;;;;;;;;;;;8.60;99.90;;;;;;5055566;28;19913;-85
2021/12/29 10:57:46;;;;;;;;;;;8.60;99.90;;;;;;5037961;28;20334;-81
2021/12/29 11:00:15;;;;;;;;;;;8.50;99.90;;;;;;5037879;28;20296;-85
2021/12/29 11:02:42;;;;;;;;;;;8.60;99.90;;;;;;5037938;28;19947;-85
2021/12/29 11:05:09;;;;;;;;;;;8.50;99.90;;;;;;5037837;28;20261;-84
2021/12/29 11:07:36;;;;;;;;;;;8.50;99.90;;;;;;5040894;28;20270;-82
2021/12/29 11:10:07;;;;;;;;;;;8.50;99.90;;;;;;5058954;28;19923;-83
2021/12/29 11:12:42;;;;;;;;;;;8.40;99.90;;;;;;5058882;28;19913;-84
2021/12/29 11:15:29;;;;;;;;;;;8.40;99.90;;;;;;5058800;28;19909;-84
2021/12/29 11:17:55;;;;;;;;;;;8.40;99.90;;;;;;5041186;28;19920;-85
2021/12/29 11:20:22;;;;;;;;;;;8.40;99.90;;;;;;5041070;28;19959;-84
2021/12/29 11:22:48;;;;;;;;;;;8.40;99.90;;;;;;5058481;28;19912;-82
2021/12/29 11:25:13;;;;;;;;;;;8.40;99.90;;;;;;5040921;28;20367;-84
2021/12/29 11:27:39;;;;;;;;;;;8.40;99.90;;;;;;5041058;28;20008;-83
2021/12/29 11:30:09;;;;;;;;;;;8.40;99.90;;;;;;5058303;28;20327;-81
2021/12/29 11:32:43;;;;;;;;;;;8.40;99.90;;;;;;5058169;28;19966;-84
2021/12/29 11:35:09;;;;;;;;;;;8.40;99.90;;;;;;5027589;28;19983;-84
2021/12/29 11:37:35;;;;;;;;;;;8.40;99.90;;;;;;5020737;28;20197;-84
2021/12/29 11:40:05;;;;;;;;;;;8.40;99.90;;;;;;5038323;28;20228;-84
2021/12/29 11:42:31;;;;;;;;;;;8.40;99.90;;;;;;5020632;28;19963;-84
2021/12/29 11:44:56;;;;;;;;;;;8.40;99.90;;;;;;5020509;28;19998;-83
2021/12/29 11:47:22;;;;;;;;;;;8.40;99.90;;;;;;5020646;28;20296;-84
2021/12/29 11:49:48;;;;;;;;;;;8.40;99.90;;;;;;5020521;28;19909;-83
2021/12/29 11:52:16;;;;;;;;;;;8.40;99.90;;;;;;5020502;28;19915;-84
2021/12/29 11:54:45;;;;;;;;;;;8.40;99.90;;;;;;5020723;28;19936;-84
2021/12/29 11:57:12;;;;;;;;;;;8.40;99.90;;;;;;5037890;28;19955;-85
2021/12/29 11:59:37;;;;;;;;;;;8.40;99.90;;;;;;5020424;28;20275;-83
2021/12/29 12:02:03;;;;;;;;;;;8.40;99.90;;;;;;5037723;28;19909;-85
2021/12/29 12:04:29;;;;;;;;;;;8.40;99.90;;;;;;5038130;28;20219;-84
2021/12/29 12:07:05;;;;;;;;;;;8.40;99.90;;;;;;5020396;28;20007;-83
2021/12/29 12:09:44;;;;;;;;;;;8.50;99.90;;;;;;5020249;28;19909;-85
2021/12/29 12:12:09;;;;;;;;;;;8.50;99.90;;;;;;5037948;28;19913;-80
2021/12/29 12:14:42;;;;;;;;;;;8.50;99.90;;;;;;5020207;28;19935;-80
2021/12/29 12:17:14;;;;;;;;;;;8.50;99.90;;;;;;5019769;28;20279;-84
2021/12/29 12:19:40;;;;;;;;;;;8.50;99.90;;;;;;5037685;28;20305;-85
2021/12/29 12:22:11;;;;;;;;;;;8.50;99.90;;;;;;5037509;28;19916;-83
2021/12/29 12:24:38;;;;;;;;;;;8.50;99.90;;;;;;5037683;28;19909;-83
2021/12/29 12:27:05;;;;;;;;;;;8.60;99.90;;;;;;5019858;28;19920;-84
2021/12/29 12:29:34;;;;;;;;;;;8.50;99.90;;;;;;5019853;28;20331;-83
2021/12/29 12:32:10;;;;;;;;;;;8.60;99.90;;;;;;5019662;28;20228;-84
2021/12/29 12:34:47;;;;;;;;;;;8.60;99.90;;;;;;5045492;28;19916;-79
2021/12/29 12:37:20;;;;;;;;;;;8.60;99.90;;;;;;5056716;28;19909;-84
2021/12/29 12:40:03;;;;;;;;;;;8.70;99.90;;;;;;5056803;28;19932;-84
2021/12/29 12:42:29;;;;;;;;;;;8.70;99.90;;;;;;5038912;28;19925;-83
2021/12/29 12:44:55;;;;;;;;;;;8.70;99.90;;;;;;5039063;28;19913;-78
2021/12/29 12:47:21;;;;;;;;;;;8.80;99.90;;;;;;5056597;28;19915;-79
2021/12/29 12:49:51;;;;;;;;;;;8.70;99.90;;;;;;5056729;28;19988;-84
2021/12/29 12:52:18;;;;;;;;;;;8.70;99.90;;;;;;5056958;28;19909;-83
2021/12/29 12:54:46;;;;;;;;;;;8.70;99.90;;;;;;5039129;28;19913;-81
2021/12/29 12:57:12;;;;;;;;;;;8.70;99.90;;;;;;5039086;28;19916;-85
2021/12/29 12:59:41;;;;;;;;;;;8.70;99.90;;;;;;5056659;28;19909;-84
2021/12/29 13:02:14;;;;;;;;;;;8.70;99.90;;;;;;5038776;28;20011;-84
2021/12/29 13:05:12;;;;;;;;;;;8.60;99.90;;;;;;5056444;28;19966;-79
2021/12/29 13:07:39;;;;;;;;;;;8.60;99.90;;;;;;4995141;28;19909;-78
2021/12/29 13:10:05;;;;;;;;;;;8.60;99.90;;;;;;5037018;28;19916;-77
2021/12/29 13:12:34;;;;;;;;;;;8.60;99.90;;;;;;5054583;28;19963;-82
2021/12/29 13:15:01;;;;;;;;;;;8.60;99.90;;;;;;5055056;28;20267;-77
2021/12/29 13:17:28;;;;;;;;;;;8.60;99.90;;;;;;5054716;28;20019;-83
2021/12/29 13:19:54;;;;;;;;;;;8.60;99.90;;;;;;5055001;28;19916;-78
2021/12/29 13:22:27;;;;;;;;;;;8.60;99.90;;;;;;5054783;28;19996;-79
2021/12/29 13:24:53;;;;;;;;;;;8.50;99.90;;;;;;5055618;28;20288;-77
2021/12/29 13:27:21;;;;;;;;;;;8.50;99.90;;;;;;5055435;28;19968;-77
2021/12/29 13:29:59;;;;;;;;;;;8.60;99.90;;;;;;5054731;28;20003;-76
2021/12/29 13:32:26;;;;;;;;;;;8.50;99.90;;;;;;5037586;28;19917;-77
2021/12/29 13:34:58;;;;;;;;;;;8.50;99.90;;;;;;5054965;28;19917;-77
2021/12/29 13:37:24;;;;;;;;;;;8.60;99.90;;;;;;5055155;28;19909;-78
2021/12/29 13:39:53;;;;;;;;;;;8.60;99.90;;;;;;5055614;28;19917;-82
2021/12/29 13:42:18;;;;;;;;;;;8.60;99.90;;;;;;5055436;28;19924;-82
2021/12/29 13:44:44;;;;;;;;;;;8.60;99.90;;;;;;5055750;28;19959;-83
2021/12/29 13:47:10;;;;;;;;;;;8.60;99.90;;;;;;5037892;28;20323;-82
2021/12/29 13:49:35;;;;;;;;;;;8.60;99.90;;;;;;5038191;28;20027;-84
2021/12/29 13:52:02;;;;;;;;;;;8.60;99.90;;;;;;5053972;28;20304;-82
2021/12/29 13:54:29;;;;;;;;;;;8.60;99.90;;;;;;5054964;28;19917;-82
2021/12/29 13:56:55;;;;;;;;;;;8.60;99.90;;;;;;5034593;28;20307;-81
2021/12/29 13:59:22;;;;;;;;;;;8.70;99.90;;;;;;5055231;28;19920;-79
2021/12/29 14:01:53;;;;;;;;;;;8.60;99.90;;;;;;5037217;28;19947;-84
2021/12/29 14:04:27;;;;;;;;;;;8.60;99.90;;;;;;5054926;28;19913;-82
2021/12/29 14:06:57;;;;;;;;;;;8.60;99.90;;;;;;5055220;28;19921;-84
2021/12/29 14:09:28;;;;;;;;;;;8.60;99.90;;;;;;5028519;28;19915;-83
2021/12/29 14:12:04;;;;;;;;;;;8.60;99.90;;;;;;5048834;28;19920;-83
2021/12/29 14:14:29;;;;;;;;;;;8.60;99.90;;;;;;5031758;28;19908;-84
2021/12/29 14:16:56;;;;;;;;;;;8.60;99.90;;;;;;5029188;28;19916;-84
2021/12/29 14:19:23;;;;;;;;;;;8.60;99.90;;;;;;5034433;28;20023;-83
2021/12/29 14:21:49;;;;;;;;;;;8.70;99.90;;;;;;5055050;28;20289;-84
2021/12/29 14:24:16;;;;;;;;;;;8.70;99.90;;;;;;5054802;28;19921;-79
2021/12/29 14:26:50;;;;;;;;;;;8.70;99.90;;;;;;5034623;28;19916;-83
2021/12/29 14:29:19;;;;;;;;;;;8.60;99.90;;;;;;5054592;28;19952;-85
2021/12/29 14:31:53;;;;;;;;;;;8.70;99.90;;;;;;5036797;28;19913;-83